createdAt,value
2017-05-28T00:00:35.166Z,56.46
2017-05-28T00:01:16.054Z,56.46
2017-05-28T00:01:56.964Z,55.99
2017-05-28T00:02:37.839Z,56.46
2017-05-28T00:03:18.719Z,56.27
2017-05-28T00:03:59.622Z,56.27
2017-05-28T00:04:40.513Z,57.33
2017-05-28T00:05:21.396Z,56.46
2017-05-28T00:06:02.317Z,56.76
2017-05-28T00:06:43.208Z,56.95
2017-05-28T00:07:24.119Z,56.95
2017-05-28T00:08:05.044Z,56.95
2017-05-28T00:08:45.899Z,56.92
2017-05-28T00:09:26.844Z,57.01
2017-05-28T00:10:09.392Z,57.01
2017-05-28T00:10:50.291Z,57.5
2017-05-28T00:11:31.216Z,57.3
2017-05-28T00:12:12.105Z,57.5
2017-05-28T00:12:52.998Z,57.4
2017-05-28T00:13:33.887Z,57.59
2017-05-28T00:14:14.779Z,57.97
2017-05-28T00:14:55.665Z,57.3
2017-05-28T00:15:36.546Z,58.45
2017-05-28T00:16:17.438Z,57.78
2017-05-28T00:16:58.318Z,57.88
2017-05-28T00:17:39.223Z,57.78
2017-05-28T00:18:20.132Z,58.26
2017-05-28T00:19:01.008Z,58.55
2017-05-28T00:19:41.896Z,58.36
2017-05-28T00:20:22.781Z,58.26
2017-05-28T00:21:03.668Z,58.55
2017-05-28T00:21:44.554Z,58.45
2017-05-28T00:22:25.449Z,58.64
2017-05-28T00:23:06.340Z,58.84
2017-05-28T00:23:47.218Z,59.12
2017-05-28T00:24:28.104Z,59.12
2017-05-28T00:25:09.020Z,58.71
2017-05-28T00:25:49.880Z,59.29
2017-05-28T00:26:30.755Z,59
2017-05-28T00:27:11.649Z,58.62
2017-05-28T00:27:52.551Z,59.29
2017-05-28T00:28:33.417Z,59.38
2017-05-28T00:29:14.290Z,58.74
2017-05-28T00:29:55.171Z,59
2017-05-28T00:30:36.056Z,59.48
2017-05-28T00:31:16.970Z,59.09
2017-05-28T00:31:57.852Z,59
2017-05-28T00:32:38.815Z,59.38
2017-05-28T00:33:19.645Z,58.91
2017-05-28T00:34:00.537Z,58.81
2017-05-28T00:34:41.458Z,59.09
2017-05-28T00:35:22.348Z,59.09
2017-05-28T00:36:03.235Z,58.91
2017-05-28T00:36:44.137Z,59.58
2017-05-28T00:37:25.020Z,59.38
2017-05-28T00:38:05.912Z,59.29
2017-05-28T00:38:46.814Z,59.38
2017-05-28T00:39:27.718Z,59.09
2017-05-28T00:40:08.609Z,59.29
2017-05-28T00:41:41.858Z,59.38
2017-05-28T00:42:22.759Z,59.29
2017-05-28T00:43:03.650Z,59.38
2017-05-28T00:43:44.530Z,59.48
2017-05-28T00:44:25.430Z,59.38
2017-05-28T00:45:06.325Z,59.48
2017-05-28T00:45:47.210Z,59.48
2017-05-28T00:46:28.122Z,58.91
2017-05-28T00:47:09.009Z,59.09
2017-05-28T00:47:49.905Z,59.38
2017-05-28T00:48:30.804Z,59.29
2017-05-28T00:49:11.682Z,59.86
2017-05-28T00:49:52.578Z,59.58
2017-05-28T00:50:33.480Z,59.77
2017-05-28T00:51:14.366Z,59.96
2017-05-28T00:51:55.238Z,60.15
2017-05-28T00:52:36.154Z,60.25
2017-05-28T00:53:17.039Z,59.96
2017-05-28T00:53:57.941Z,60.15
2017-05-28T00:54:38.826Z,60.63
2017-05-28T00:55:19.723Z,61.02
2017-05-28T00:56:00.632Z,60.44
2017-05-28T00:56:41.593Z,60.35
2017-05-28T00:57:22.486Z,60.44
2017-05-28T00:58:03.362Z,60.35
2017-05-28T00:58:44.253Z,60.53
2017-05-28T00:59:25.156Z,60.72
2017-05-28T01:00:06.037Z,60.92
2017-05-28T01:00:46.931Z,60.72
2017-05-28T01:01:27.821Z,61.11
2017-05-28T01:02:08.693Z,61.21
2017-05-28T01:02:49.573Z,61.02
2017-05-28T01:03:30.473Z,61.46
2017-05-28T01:04:11.389Z,61.11
2017-05-28T01:04:52.283Z,61.11
2017-05-28T01:05:33.189Z,61.4
2017-05-28T01:06:14.062Z,60.99
2017-05-28T01:06:54.958Z,61.02
2017-05-28T01:07:35.866Z,60.92
2017-05-28T01:08:16.727Z,61.21
2017-05-28T01:08:57.610Z,60.6
2017-05-28T01:09:38.521Z,61.37
2017-05-28T01:10:19.401Z,61.46
2017-05-28T01:11:00.277Z,61.27
2017-05-28T01:11:41.167Z,61.08
2017-05-28T01:12:22.069Z,61.78
2017-05-28T01:13:03.012Z,61.27
2017-05-28T01:13:43.900Z,61.4
2017-05-28T01:14:24.810Z,61.11
2017-05-28T01:15:05.703Z,61.66
2017-05-28T01:15:46.573Z,61.21
2017-05-28T01:16:27.450Z,61.66
2017-05-28T01:17:08.445Z,61.69
2017-05-28T01:17:49.343Z,61.69
2017-05-28T01:18:30.214Z,61.78
2017-05-28T01:19:11.123Z,61.56
2017-05-28T01:19:52.024Z,61.78
2017-05-28T01:20:32.894Z,61.85
2017-05-28T01:21:13.803Z,61.56
2017-05-28T01:21:54.690Z,61.56
2017-05-28T01:22:35.561Z,61.75
2017-05-28T01:23:16.451Z,61.66
2017-05-28T01:23:57.352Z,62.33
2017-05-28T01:24:38.239Z,61.85
2017-05-28T01:25:19.129Z,61.66
2017-05-28T01:26:00.024Z,62.23
2017-05-28T01:26:40.912Z,61.66
2017-05-28T01:27:21.821Z,61.66
2017-05-28T01:28:02.720Z,62.33
2017-05-28T01:28:43.613Z,61.75
2017-05-28T01:29:24.522Z,61.75
2017-05-28T01:30:05.394Z,62.42
2017-05-28T01:30:46.276Z,62.42
2017-05-28T01:31:27.182Z,62.13
2017-05-28T01:32:08.064Z,62.42
2017-05-28T01:32:48.950Z,62.42
2017-05-28T01:33:29.824Z,62.52
2017-05-28T01:34:10.730Z,62.9
2017-05-28T01:34:51.629Z,62.71
2017-05-28T01:35:32.565Z,62.62
2017-05-28T01:36:13.419Z,62.42
2017-05-28T01:36:54.305Z,62.81
2017-05-28T01:37:35.217Z,62.62
2017-05-28T01:38:16.099Z,62.71
2017-05-28T01:38:56.979Z,63.35
2017-05-28T01:39:37.888Z,63.06
2017-05-28T01:40:18.769Z,63.64
2017-05-28T01:40:59.653Z,63.73
2017-05-28T01:41:40.554Z,63.64
2017-05-28T01:42:21.448Z,63.54
2017-05-28T01:43:02.336Z,64.12
2017-05-28T01:43:43.244Z,64.02
2017-05-28T01:44:24.126Z,63.73
2017-05-28T01:45:04.997Z,63.92
2017-05-28T01:45:45.885Z,63.92
2017-05-28T01:46:26.796Z,64.02
2017-05-28T01:47:07.685Z,64.4
2017-05-28T01:47:48.597Z,64.31
2017-05-28T01:48:29.484Z,64.31
2017-05-28T01:49:10.366Z,64.59
2017-05-28T01:49:51.249Z,64.4
2017-05-28T01:50:32.149Z,64.79
2017-05-28T01:51:13.027Z,64.69
2017-05-28T01:51:53.920Z,64.89
2017-05-28T01:52:34.817Z,65.36
2017-05-28T01:53:15.692Z,64.98
2017-05-28T01:53:56.574Z,65.08
2017-05-28T01:54:37.485Z,65.46
2017-05-28T01:55:18.369Z,65.36
2017-05-28T01:55:59.243Z,65.36
2017-05-28T01:56:40.131Z,65.75
2017-05-28T01:57:21.017Z,65.75
2017-05-28T01:58:01.903Z,65.42
2017-05-28T01:58:42.776Z,65.71
2017-05-28T01:59:23.670Z,65.91
2017-05-28T02:00:04.572Z,65.91
2017-05-28T02:00:45.447Z,66.09
2017-05-28T02:01:26.339Z,66.38
2017-05-28T02:02:07.247Z,66
2017-05-28T02:02:48.128Z,66.19
2017-05-28T02:03:28.999Z,66.19
2017-05-28T02:04:09.904Z,66.09
2017-05-28T02:04:50.791Z,66.58
2017-05-28T02:05:31.666Z,66.96
2017-05-28T02:06:12.559Z,66.58
2017-05-28T02:06:53.479Z,66.48
2017-05-28T02:07:34.369Z,66.58
2017-05-28T02:08:15.276Z,67.15
2017-05-28T02:08:56.154Z,66.96
2017-05-28T02:09:37.045Z,67.05
2017-05-28T02:10:17.933Z,66.77
2017-05-28T02:10:58.819Z,67.25
2017-05-28T02:11:39.705Z,67.15
2017-05-28T02:12:20.609Z,67.44
2017-05-28T02:13:01.494Z,67.15
2017-05-28T02:13:42.371Z,67.15
2017-05-28T02:14:23.260Z,67.15
2017-05-28T02:15:04.168Z,67.63
2017-05-28T02:15:45.044Z,68.4
2017-05-28T02:16:25.936Z,68.11
2017-05-28T02:17:06.831Z,68.21
2017-05-28T02:17:47.706Z,68.11
2017-05-28T02:18:28.584Z,68.11
2017-05-28T02:19:09.493Z,68.11
2017-05-28T02:19:50.395Z,68.49
2017-05-28T02:20:31.331Z,68.3
2017-05-28T02:21:12.208Z,68.59
2017-05-28T02:21:53.098Z,68.4
2017-05-28T02:22:33.987Z,68.4
2017-05-28T02:23:14.870Z,68.59
2017-05-28T02:23:55.767Z,68.78
2017-05-28T02:25:23.850Z,68.78
2017-05-28T02:26:04.752Z,68.74
2017-05-28T02:26:45.636Z,69.35
2017-05-28T02:27:26.558Z,69.54
2017-05-28T02:28:07.443Z,69.51
2017-05-28T02:28:48.321Z,69.42
2017-05-28T02:29:29.221Z,69.42
2017-05-28T02:30:10.110Z,69.42
2017-05-28T02:30:50.987Z,69.32
2017-05-28T02:31:31.876Z,69.7
2017-05-28T02:32:12.770Z,69.99
2017-05-28T02:32:53.657Z,69.89
2017-05-28T02:33:34.551Z,69.89
2017-05-28T02:34:15.441Z,69.89
2017-05-28T02:34:56.336Z,70.47
2017-05-28T02:35:37.208Z,70.09
2017-05-28T02:36:18.105Z,70.18
2017-05-28T02:36:58.992Z,70.66
2017-05-28T02:37:39.865Z,70.56
2017-05-28T02:38:20.748Z,71.04
2017-05-28T02:39:01.637Z,70.95
2017-05-28T02:39:42.530Z,70.47
2017-05-28T02:40:23.402Z,71.14
2017-05-28T02:41:04.302Z,70.85
2017-05-28T02:41:45.187Z,71.23
2017-05-28T02:42:26.073Z,71.23
2017-05-28T02:43:06.953Z,71.23
2017-05-28T02:43:47.849Z,71.23
2017-05-28T02:44:28.727Z,71.71
2017-05-28T02:45:09.613Z,71.52
2017-05-28T02:45:50.516Z,71.52
2017-05-28T02:46:31.431Z,71.52
2017-05-28T02:47:12.313Z,71.62
2017-05-28T02:47:53.219Z,71.62
2017-05-28T02:48:34.097Z,71.52
2017-05-28T02:49:14.985Z,71.91
2017-05-28T02:49:55.877Z,71.71
2017-05-28T02:50:36.786Z,72.09
2017-05-28T02:51:17.685Z,72.19
2017-05-28T02:51:58.584Z,72.48
2017-05-28T02:52:39.473Z,72.96
2017-05-28T02:53:20.405Z,72.77
2017-05-28T02:54:01.283Z,72.77
2017-05-28T02:54:42.187Z,73.05
2017-05-28T02:55:23.088Z,72.96
2017-05-28T02:56:03.947Z,72.86
2017-05-28T02:56:44.836Z,73.15
2017-05-28T02:57:25.758Z,73.63
2017-05-28T02:58:06.643Z,73.15
2017-05-28T02:58:47.545Z,73.24
2017-05-28T02:59:28.425Z,73.34
2017-05-28T03:00:09.308Z,73.15
2017-05-28T03:00:50.195Z,73.44
2017-05-28T03:01:31.084Z,73.63
2017-05-28T03:02:11.967Z,73.82
2017-05-28T03:02:52.859Z,74.26
2017-05-28T03:03:33.749Z,74.3
2017-05-28T03:04:14.637Z,74.4
2017-05-28T03:04:55.527Z,74.16
2017-05-28T03:05:36.424Z,74.36
2017-05-28T03:06:17.310Z,74.65
2017-05-28T03:06:58.190Z,74.74
2017-05-28T03:07:39.099Z,74.65
2017-05-28T03:08:19.986Z,74.55
2017-05-28T03:09:00.867Z,74.84
2017-05-28T03:09:41.776Z,74.74
2017-05-28T03:10:22.649Z,74.65
2017-05-28T03:11:03.537Z,75.02
2017-05-28T03:11:44.422Z,75.02
2017-05-28T03:12:25.327Z,75.12
2017-05-28T03:13:06.215Z,75.51
2017-05-28T03:13:47.090Z,74.93
2017-05-28T03:14:27.991Z,75.31
2017-05-28T03:15:08.874Z,75.7
2017-05-28T03:15:49.760Z,75.7
2017-05-28T03:16:30.670Z,75.7
2017-05-28T03:17:11.536Z,75.79
2017-05-28T03:17:52.414Z,75.22
2017-05-28T03:18:33.281Z,75.41
2017-05-28T03:19:14.159Z,75.89
2017-05-28T03:19:55.068Z,75.79
2017-05-28T03:20:35.938Z,75.6
2017-05-28T03:21:16.837Z,76.18
2017-05-28T03:21:57.734Z,76.08
2017-05-28T03:22:38.613Z,75.98
2017-05-28T03:23:19.482Z,76.27
2017-05-28T03:24:00.341Z,76.37
2017-05-28T03:24:41.236Z,76.75
2017-05-28T03:25:22.117Z,76.56
2017-05-28T03:26:03.007Z,76.84
2017-05-28T03:26:43.898Z,76.37
2017-05-28T03:27:24.787Z,76.56
2017-05-28T03:28:58.015Z,77.13
2017-05-28T03:29:38.902Z,77.13
2017-05-28T03:30:19.790Z,76.84
2017-05-28T03:31:00.677Z,76.75
2017-05-28T03:31:41.556Z,76.56
2017-05-28T03:32:22.459Z,76.84
2017-05-28T03:33:03.347Z,77.33
2017-05-28T03:33:44.227Z,76.75
2017-05-28T03:34:25.109Z,76.37
2017-05-28T03:35:06.000Z,77.23
2017-05-28T03:35:46.878Z,76.75
2017-05-28T03:36:27.758Z,76.08
2017-05-28T03:37:08.643Z,76.18
2017-05-28T03:37:49.528Z,76.18
2017-05-28T03:38:30.446Z,75.6
2017-05-28T03:39:11.323Z,76.08
2017-05-28T03:39:52.213Z,76.37
2017-05-28T03:40:33.100Z,76.37
2017-05-28T03:41:13.993Z,76.18
2017-05-28T03:41:54.911Z,76.27
2017-05-28T03:42:35.774Z,76.18
2017-05-28T03:43:16.671Z,75.98
2017-05-28T03:43:57.558Z,76.65
2017-05-28T03:44:38.447Z,76.37
2017-05-28T03:45:19.328Z,75.41
2017-05-28T03:46:00.231Z,75.31
2017-05-28T03:46:41.113Z,75.51
2017-05-28T03:47:22.003Z,75.51
2017-05-28T03:48:02.894Z,75.51
2017-05-28T03:48:43.788Z,75.51
2017-05-28T03:49:24.669Z,75.98
2017-05-28T03:50:05.567Z,75.51
2017-05-28T03:50:46.475Z,75.64
2017-05-28T03:51:27.361Z,75.07
2017-05-28T03:52:08.266Z,75.26
2017-05-28T03:52:49.149Z,75.73
2017-05-28T03:53:30.037Z,75.35
2017-05-28T03:54:10.937Z,75.54
2017-05-28T03:54:51.821Z,75.07
2017-05-28T03:55:32.705Z,75.35
2017-05-28T03:56:13.592Z,75.45
2017-05-28T03:56:54.483Z,75.54
2017-05-28T03:57:35.368Z,75.45
2017-05-28T03:58:16.240Z,75.54
2017-05-28T03:58:57.167Z,75.45
2017-05-28T03:59:38.033Z,75.54
2017-05-28T04:00:18.897Z,75.73
2017-05-28T04:00:59.767Z,76.6
2017-05-28T04:01:40.665Z,76.21
2017-05-28T04:02:21.551Z,76.02
2017-05-28T04:03:02.426Z,75.54
2017-05-28T04:03:43.316Z,75.35
2017-05-28T04:04:24.226Z,75.45
2017-05-28T04:05:05.100Z,75.45
2017-05-28T04:05:45.970Z,75.54
2017-05-28T04:06:26.855Z,75.83
2017-05-28T04:07:07.753Z,76.4
2017-05-28T04:07:48.635Z,75.93
2017-05-28T04:08:29.508Z,75.64
2017-05-28T04:09:10.400Z,75.45
2017-05-28T04:09:51.308Z,76.21
2017-05-28T04:10:32.168Z,75.93
2017-05-28T04:11:13.042Z,75.93
2017-05-28T04:11:53.933Z,75.93
2017-05-28T04:12:34.835Z,76.02
2017-05-28T04:13:15.736Z,75.45
2017-05-28T04:13:56.638Z,75.73
2017-05-28T04:14:38.221Z,75.45
2017-05-28T04:15:19.097Z,75.35
2017-05-28T04:15:59.963Z,75.64
2017-05-28T04:16:40.850Z,75.45
2017-05-28T04:17:21.744Z,75.54
2017-05-28T04:18:02.630Z,75.83
2017-05-28T04:18:43.506Z,75.26
2017-05-28T04:19:24.399Z,75.73
2017-05-28T04:20:05.314Z,75.73
2017-05-28T04:20:46.224Z,75.16
2017-05-28T04:21:27.102Z,75.73
2017-05-28T04:22:07.992Z,75.64
2017-05-28T04:22:48.885Z,75.45
2017-05-28T04:23:29.795Z,75.48
2017-05-28T04:24:10.683Z,74.97
2017-05-28T04:24:51.585Z,75.01
2017-05-28T04:25:32.475Z,74.91
2017-05-28T04:26:13.373Z,74.58
2017-05-28T04:26:54.272Z,74.72
2017-05-28T04:27:35.162Z,74.82
2017-05-28T04:28:16.048Z,74.62
2017-05-28T04:28:56.938Z,74.72
2017-05-28T04:29:37.919Z,74.43
2017-05-28T04:30:18.764Z,74.33
2017-05-28T04:30:59.645Z,74.62
2017-05-28T04:31:40.520Z,74.05
2017-05-28T04:32:21.410Z,74.05
2017-05-28T04:33:02.307Z,74.24
2017-05-28T04:33:43.189Z,73.86
2017-05-28T04:34:24.083Z,73.47
2017-05-28T04:35:04.978Z,73.28
2017-05-28T04:35:45.861Z,73.95
2017-05-28T04:36:26.759Z,73.66
2017-05-28T04:37:07.667Z,73.57
2017-05-28T04:37:48.544Z,73.66
2017-05-28T04:38:29.435Z,73.38
2017-05-28T04:39:10.328Z,72.9
2017-05-28T04:39:51.211Z,72.9
2017-05-28T04:40:32.108Z,73.38
2017-05-28T04:41:13.019Z,72.71
2017-05-28T04:41:53.881Z,73.66
2017-05-28T04:42:34.768Z,73.66
2017-05-28T04:43:15.694Z,72.99
2017-05-28T04:43:56.559Z,72.99
2017-05-28T04:44:37.435Z,72.71
2017-05-28T04:45:18.325Z,72.32
2017-05-28T04:45:59.232Z,72.52
2017-05-28T04:46:40.107Z,72.52
2017-05-28T04:47:20.988Z,72.45
2017-05-28T04:48:01.908Z,72.55
2017-05-28T04:48:42.782Z,72.45
2017-05-28T04:49:23.676Z,72.17
2017-05-28T04:50:04.578Z,71.78
2017-05-28T04:50:45.447Z,72.27
2017-05-28T04:51:26.330Z,71.98
2017-05-28T04:52:07.230Z,71.69
2017-05-28T04:52:48.123Z,71.69
2017-05-28T04:53:29.004Z,71.69
2017-05-28T04:54:09.912Z,71.31
2017-05-28T04:54:50.792Z,71.69
2017-05-28T04:55:31.668Z,71.78
2017-05-28T04:56:12.550Z,71.59
2017-05-28T04:56:53.440Z,70.92
2017-05-28T04:57:34.335Z,70.83
2017-05-28T04:58:15.227Z,71.21
2017-05-28T04:58:56.147Z,70.64
2017-05-28T04:59:37.018Z,70.29
2017-05-28T05:00:17.921Z,70.19
2017-05-28T05:00:58.815Z,70.19
2017-05-28T05:01:39.702Z,70.57
2017-05-28T05:02:20.586Z,69.81
2017-05-28T05:03:01.481Z,70.09
2017-05-28T05:03:42.360Z,70.09
2017-05-28T05:04:23.229Z,69.52
2017-05-28T05:05:04.122Z,69.62
2017-05-28T05:05:45.018Z,69.71
2017-05-28T05:06:25.904Z,69.56
2017-05-28T05:07:06.787Z,68.85
2017-05-28T05:07:47.683Z,68.85
2017-05-28T05:08:28.623Z,68.4
2017-05-28T05:09:09.438Z,68.3
2017-05-28T05:10:47.829Z,68.3
2017-05-28T05:11:28.706Z,67.44
2017-05-28T05:12:09.586Z,67.54
2017-05-28T05:12:50.483Z,67.73
2017-05-28T05:13:31.363Z,67.35
2017-05-28T05:14:12.239Z,67.25
2017-05-28T05:14:53.163Z,66.67
2017-05-28T05:15:34.044Z,66.86
2017-05-28T05:16:14.931Z,66.29
2017-05-28T05:16:55.828Z,66.29
2017-05-28T05:17:36.721Z,66.49
2017-05-28T05:18:17.608Z,66.1
2017-05-28T05:19:50.893Z,66.39
2017-05-28T05:20:31.785Z,66.19
2017-05-28T05:21:12.672Z,66.03
2017-05-28T05:21:53.544Z,66
2017-05-28T05:22:34.458Z,65.84
2017-05-28T05:23:15.353Z,65.65
2017-05-28T05:23:56.243Z,65.56
2017-05-28T05:24:37.142Z,65.08
2017-05-28T05:25:18.027Z,65.08
2017-05-28T05:25:58.907Z,65.46
2017-05-28T05:26:39.787Z,64.59
2017-05-28T05:27:20.688Z,64.59
2017-05-28T05:28:01.565Z,64.22
2017-05-28T05:28:42.446Z,64.05
2017-05-28T05:29:23.337Z,63.67
2017-05-28T05:30:04.227Z,63.19
2017-05-28T05:30:45.110Z,63.48
2017-05-28T05:31:25.998Z,63.38
2017-05-28T05:32:06.903Z,62.61
2017-05-28T05:32:47.785Z,62.9
2017-05-28T05:33:28.663Z,62.71
2017-05-28T05:34:09.565Z,62.71
2017-05-28T05:34:50.463Z,62.9
2017-05-28T05:35:31.381Z,62.42
2017-05-28T05:36:12.261Z,62.71
2017-05-28T05:36:53.150Z,62.64
2017-05-28T05:37:34.040Z,62.32
2017-05-28T05:38:14.952Z,62.35
2017-05-28T05:38:55.838Z,61.97
2017-05-28T05:39:36.741Z,61.78
2017-05-28T05:40:17.628Z,62.45
2017-05-28T05:40:58.531Z,61.78
2017-05-28T05:41:39.422Z,61.11
2017-05-28T05:42:20.304Z,61.4
2017-05-28T05:43:01.195Z,61.2
2017-05-28T05:43:42.085Z,60.53
2017-05-28T05:44:22.973Z,60.43
2017-05-28T05:45:03.863Z,60.72
2017-05-28T05:45:44.768Z,60.82
2017-05-28T05:46:25.654Z,60.34
2017-05-28T05:47:06.538Z,60.66
2017-05-28T05:47:47.437Z,60.17
2017-05-28T05:48:28.331Z,59.69
2017-05-28T05:49:09.238Z,59.89
2017-05-28T05:49:50.138Z,59.5
2017-05-28T05:50:31.009Z,59.31
2017-05-28T05:51:11.892Z,58.92
2017-05-28T05:51:52.787Z,59.31
2017-05-28T05:52:33.679Z,58.83
2017-05-28T05:53:14.564Z,58.57
2017-05-28T05:53:55.452Z,58.47
2017-05-28T05:54:36.351Z,58.37
2017-05-28T05:55:17.235Z,58.47
2017-05-28T05:55:58.121Z,58.37
2017-05-28T05:56:39.017Z,58.28
2017-05-28T05:57:19.893Z,58.28
2017-05-28T05:58:00.776Z,57.7
2017-05-28T05:58:41.680Z,57.8
2017-05-28T05:59:22.568Z,57.13
2017-05-28T06:00:03.529Z,57.35
2017-05-28T06:00:44.357Z,56.84
2017-05-28T06:01:25.254Z,56.38
2017-05-28T06:02:06.149Z,56.67
2017-05-28T06:02:47.048Z,56.38
2017-05-28T06:03:27.937Z,56
2017-05-28T06:04:08.834Z,56
2017-05-28T06:04:49.733Z,55.81
2017-05-28T06:05:30.631Z,55.35
2017-05-28T06:06:11.528Z,54.97
2017-05-28T06:06:52.411Z,54.78
2017-05-28T06:07:33.351Z,54.1
2017-05-28T06:08:14.212Z,53.91
2017-05-28T06:08:55.108Z,53.62
2017-05-28T06:09:36.011Z,53.55
2017-05-28T06:10:16.899Z,53.36
2017-05-28T06:10:57.787Z,53.07
2017-05-28T06:11:38.691Z,52.78
2017-05-28T06:12:19.580Z,52.42
2017-05-28T06:13:00.487Z,51.56
2017-05-28T06:13:41.399Z,51.48
2017-05-28T06:14:22.273Z,50.26
2017-05-28T06:15:03.233Z,49.12
2017-05-28T06:15:44.075Z,47.8
2017-05-28T06:16:24.993Z,47.5
2017-05-28T06:17:05.892Z,46.37
2017-05-28T06:17:46.800Z,45.59
2017-05-28T06:18:27.704Z,45.35
2017-05-28T06:19:08.591Z,44.57
2017-05-28T06:19:49.486Z,43.73
2017-05-28T06:20:30.399Z,43.34
2017-05-28T06:21:11.304Z,43.17
2017-05-28T06:21:52.204Z,42.2
2017-05-28T06:22:33.093Z,42.13
2017-05-28T06:23:13.998Z,41.64
2017-05-28T06:23:54.907Z,40.89
2017-05-28T06:24:35.815Z,42.14
2017-05-28T06:25:16.727Z,40.23
2017-05-28T06:25:57.630Z,38.48
2017-05-28T06:26:38.531Z,39.26
2017-05-28T06:27:19.434Z,38.79
2017-05-28T06:28:00.323Z,38.12
2017-05-28T06:28:41.223Z,38.12
2017-05-28T06:29:22.175Z,38.21
2017-05-28T06:30:03.029Z,38.5
2017-05-28T06:30:43.936Z,38.31
2017-05-28T06:31:24.833Z,37.45
2017-05-28T06:32:05.714Z,36.79
2017-05-28T06:32:46.644Z,36.69
2017-05-28T06:33:27.543Z,36.13
2017-05-28T06:34:08.451Z,35.94
2017-05-28T06:34:49.363Z,36.11
2017-05-28T06:35:30.291Z,36.13
2017-05-28T06:36:11.193Z,36.04
2017-05-28T06:36:52.112Z,35.35
2017-05-28T06:37:33.035Z,35.35
2017-05-28T06:38:13.934Z,35.45
2017-05-28T06:38:54.837Z,35.16
2017-05-28T06:39:35.732Z,35.64
2017-05-28T06:40:16.637Z,35.84
2017-05-28T06:40:57.538Z,35.66
2017-05-28T06:41:38.452Z,35.49
2017-05-28T06:42:19.444Z,34.61
2017-05-28T06:43:00.348Z,33.75
2017-05-28T06:43:41.254Z,33.67
2017-05-28T06:44:22.165Z,33.18
2017-05-28T06:45:03.068Z,33.58
2017-05-28T06:45:43.990Z,33.39
2017-05-28T06:46:24.901Z,33.53
2017-05-28T06:47:05.807Z,34.53
2017-05-28T06:47:46.718Z,33.39
2017-05-28T06:48:27.608Z,32.24
2017-05-28T06:49:08.507Z,32.53
2017-05-28T06:49:49.410Z,31.09
2017-05-28T06:50:30.318Z,30.99
2017-05-28T06:51:11.221Z,31.19
2017-05-28T06:51:52.128Z,30.7
2017-05-28T06:52:33.036Z,31.09
2017-05-28T06:53:13.943Z,31.17
2017-05-28T06:53:54.848Z,33.17
2017-05-28T06:54:35.748Z,32.62
2017-05-28T06:55:16.666Z,31.93
2017-05-28T06:55:57.563Z,31.84
2017-05-28T06:56:38.472Z,32.42
2017-05-28T06:57:19.376Z,31.57
2017-05-28T06:58:00.268Z,30.9
2017-05-28T06:58:41.188Z,30.81
2017-05-28T06:59:22.071Z,30.71
2017-05-28T07:00:02.980Z,30.41
2017-05-28T07:00:43.885Z,31.25
2017-05-28T07:01:24.797Z,31.35
2017-05-28T07:02:07.143Z,31.45
2017-05-28T07:02:48.057Z,31.45
2017-05-28T07:03:28.955Z,31.64
2017-05-28T07:04:09.916Z,31.84
2017-05-28T07:04:50.819Z,31.35
2017-05-28T07:05:31.732Z,31.74
2017-05-28T07:06:12.613Z,31.76
2017-05-28T07:06:53.539Z,30.9
2017-05-28T07:07:34.428Z,30.8
2017-05-28T07:08:15.335Z,30.8
2017-05-28T07:08:56.243Z,30.51
2017-05-28T07:09:37.163Z,30.81
2017-05-28T07:10:18.065Z,30.6
2017-05-28T07:10:58.987Z,30.9
2017-05-28T07:11:39.891Z,30.98
2017-05-28T07:12:20.803Z,30.51
2017-05-28T07:13:01.709Z,30.88
2017-05-28T07:13:42.623Z,31.09
2017-05-28T07:14:23.533Z,30.88
2017-05-28T07:15:04.431Z,30.98
2017-05-28T07:15:45.338Z,30.9
2017-05-28T07:16:26.248Z,30.6
2017-05-28T07:17:07.155Z,30.9
2017-05-28T07:17:48.066Z,30.7
2017-05-28T07:18:28.964Z,30.99
2017-05-28T07:19:09.875Z,31.27
2017-05-28T07:19:50.787Z,31.07
2017-05-28T07:20:31.682Z,31.17
2017-05-28T07:21:12.583Z,31.48
2017-05-28T07:21:53.487Z,30.99
2017-05-28T07:22:34.375Z,30.41
2017-05-28T07:23:15.288Z,30.78
2017-05-28T07:23:56.198Z,31.38
2017-05-28T07:24:37.101Z,31.37
2017-05-28T07:25:18.050Z,31.17
2017-05-28T07:25:58.954Z,31.46
2017-05-28T07:26:39.859Z,31.07
2017-05-28T07:27:20.773Z,31.17
2017-05-28T07:28:01.680Z,31.37
2017-05-28T07:28:42.593Z,30.9
2017-05-28T07:29:23.495Z,32.32
2017-05-28T07:30:04.401Z,31.19
2017-05-28T07:30:45.453Z,30.71
2017-05-28T07:31:26.360Z,30.62
2017-05-28T07:32:07.259Z,30.71
2017-05-28T07:32:48.182Z,30.7
2017-05-28T07:33:29.080Z,30.7
2017-05-28T07:34:09.989Z,30.8
2017-05-28T07:34:50.894Z,31.17
2017-05-28T07:35:31.800Z,31.17
2017-05-28T07:36:12.703Z,31.27
2017-05-28T07:36:53.644Z,30.98
2017-05-28T07:37:34.560Z,31.07
2017-05-28T07:38:15.466Z,31.17
2017-05-28T07:38:56.382Z,30.88
2017-05-28T07:39:37.280Z,31.07
2017-05-28T07:40:18.186Z,31.17
2017-05-28T07:40:59.090Z,31.38
2017-05-28T07:41:39.997Z,30.51
2017-05-28T07:42:20.903Z,30.42
2017-05-28T07:43:01.815Z,30.52
2017-05-28T07:43:42.727Z,31.2
2017-05-28T07:44:23.638Z,30.54
2017-05-28T07:45:04.546Z,30.45
2017-05-28T07:45:45.460Z,29.77
2017-05-28T07:46:26.381Z,28.99
2017-05-28T07:47:07.309Z,29.28
2017-05-28T07:47:48.217Z,29.38
2017-05-28T07:48:29.132Z,29.56
2017-05-28T07:49:10.046Z,29.96
2017-05-28T07:49:50.957Z,29.96
2017-05-28T07:50:31.862Z,29.47
2017-05-28T07:51:12.768Z,29.3
2017-05-28T07:51:53.676Z,29.69
2017-05-28T07:52:34.588Z,30.27
2017-05-28T07:53:15.500Z,29.5
2017-05-28T07:53:56.417Z,28.83
2017-05-28T07:54:37.328Z,28.75
2017-05-28T07:55:18.250Z,27.76
2017-05-28T07:55:59.162Z,27.86
2017-05-28T07:56:40.086Z,27.55
2017-05-28T07:57:20.977Z,27.55
2017-05-28T07:58:01.894Z,28.14
2017-05-28T07:58:42.796Z,28.04
2017-05-28T07:59:23.719Z,28.33
2017-05-28T08:00:04.631Z,28.14
2017-05-28T08:00:45.541Z,28.43
2017-05-28T08:01:26.454Z,28.14
2017-05-28T08:02:07.368Z,27.66
2017-05-28T08:02:48.285Z,27.76
2017-05-28T08:03:29.207Z,27.84
2017-05-28T08:04:10.111Z,29.75
2017-05-28T08:04:51.024Z,29.39
2017-05-28T08:05:31.940Z,28.71
2017-05-28T08:06:12.847Z,28.82
2017-05-28T08:06:53.770Z,28.43
2017-05-28T08:07:34.688Z,28.15
2017-05-28T08:08:16.052Z,27.17
2017-05-28T08:08:56.979Z,27.37
2017-05-28T08:09:37.893Z,27.65
2017-05-28T08:10:18.850Z,27.84
2017-05-28T08:10:59.778Z,28.04
2017-05-28T08:11:40.689Z,28.23
2017-05-28T08:12:21.595Z,28.23
2017-05-28T08:13:02.519Z,28.23
2017-05-28T08:13:43.456Z,28.23
2017-05-28T08:14:24.348Z,28.54
2017-05-28T08:15:05.256Z,28.06
2017-05-28T08:15:46.171Z,26.89
2017-05-28T08:16:27.080Z,26.6
2017-05-28T08:17:08.003Z,27.19
2017-05-28T08:17:48.915Z,27.38
2017-05-28T08:18:29.828Z,27.1
2017-05-28T08:19:10.756Z,26.71
2017-05-28T08:19:51.670Z,26.99
2017-05-28T08:20:32.594Z,26.89
2017-05-28T08:21:13.507Z,26.59
2017-05-28T08:21:54.476Z,26.88
2017-05-28T08:22:35.380Z,27.26
2017-05-28T08:23:16.341Z,27.36
2017-05-28T08:23:57.254Z,27.36
2017-05-28T08:24:38.164Z,27.36
2017-05-28T08:25:19.090Z,27.45
2017-05-28T08:25:59.997Z,27.36
2017-05-28T08:26:40.912Z,27.75
2017-05-28T08:27:21.831Z,27.65
2017-05-28T08:28:02.750Z,27.84
2017-05-28T08:28:43.671Z,27.26
2017-05-28T08:29:24.591Z,27.36
2017-05-28T08:30:05.501Z,27.65
2017-05-28T08:30:46.410Z,27.65
2017-05-28T08:31:27.320Z,27.55
2017-05-28T08:32:08.302Z,27.08
2017-05-28T08:32:49.242Z,27.27
2017-05-28T08:33:30.159Z,27.66
2017-05-28T08:34:11.079Z,27.75
2017-05-28T08:34:51.993Z,27.37
2017-05-28T08:35:32.914Z,27.38
2017-05-28T08:36:13.835Z,26.14
2017-05-28T08:36:54.755Z,25.85
2017-05-28T08:37:35.680Z,25.67
2017-05-28T08:38:16.604Z,24.41
2017-05-28T08:38:57.528Z,24.24
2017-05-28T08:39:38.425Z,23.55
2017-05-28T08:40:19.341Z,24.31
2017-05-28T08:41:00.270Z,23.84
2017-05-28T08:41:41.194Z,23.17
2017-05-28T08:42:22.123Z,22.67
2017-05-28T08:43:03.051Z,22.59
2017-05-28T08:43:43.972Z,22.98
2017-05-28T08:44:24.885Z,23.35
2017-05-28T08:45:05.807Z,24.14
2017-05-28T08:45:46.723Z,22.88
2017-05-28T08:46:27.651Z,21.91
2017-05-28T08:47:08.573Z,22.22
2017-05-28T08:47:49.498Z,21.42
2017-05-28T08:48:30.422Z,21.83
2017-05-28T08:49:11.335Z,21.81
2017-05-28T08:49:52.254Z,21.44
2017-05-28T08:50:33.171Z,21.84
2017-05-28T08:51:14.145Z,21.22
2017-05-28T08:51:55.006Z,21.59
2017-05-28T08:52:35.928Z,21.72
2017-05-28T08:53:16.848Z,21.72